createdAt,value
2022-12-01T00:00:07.801Z,19.60
2022-12-01T00:02:35.092Z,19.95
2022-12-01T00:05:02.367Z,18.25
2022-12-01T00:07:29.599Z,19.35
2022-12-01T00:10:15.256Z,18.95
2022-12-01T00:12:43.504Z,18.83
2022-12-01T00:15:13.796Z,18.95
2022-12-01T00:17:43.801Z,19.08
2022-12-01T00:20:11.276Z,17.90
2022-12-01T00:22:38.614Z,18.25
2022-12-01T00:25:06.036Z,19.58
2022-12-01T00:27:33.139Z,20.52
2022-12-01T00:30:00.304Z,19.08
2022-12-01T00:32:27.368Z,19.55
2022-12-01T00:34:54.528Z,23.20
2022-12-01T00:37:21.718Z,19.42
2022-12-01T00:39:49.138Z,18.83
2022-12-01T00:42:16.395Z,20.88
2022-12-01T00:44:44.022Z,19.73
2022-12-01T00:47:11.175Z,20.58
2022-12-01T00:49:38.360Z,19.50
2022-12-01T00:52:05.722Z,19.63
2022-12-01T00:54:32.817Z,21.35
2022-12-01T00:57:00.650Z,19.25
2022-12-01T00:59:27.748Z,18.63
2022-12-01T01:01:54.992Z,19.45
2022-12-01T01:04:22.332Z,18.30
2022-12-01T01:06:49.469Z,18.50
2022-12-01T01:09:16.997Z,18.90
2022-12-01T01:11:44.098Z,19.90
2022-12-01T01:14:11.226Z,19.98
2022-12-01T01:16:38.495Z,20.80
2022-12-01T01:19:05.760Z,19.42
2022-12-01T01:21:33.118Z,20.27
2022-12-01T01:24:00.272Z,18.67
2022-12-01T01:26:28.709Z,20.65
2022-12-01T01:29:00.229Z,18.60
2022-12-01T01:31:28.407Z,19.05
2022-12-01T01:33:56.524Z,19.42
2022-12-01T01:36:23.703Z,18.55
2022-12-01T01:38:51.652Z,20.02
2022-12-01T01:41:19.874Z,18.98
2022-12-01T01:43:51.737Z,19.33
2022-12-01T01:46:26.576Z,20.25
2022-12-01T01:49:01.643Z,20.42
2022-12-01T01:51:37.879Z,18.65
2022-12-01T01:54:07.547Z,18.70
2022-12-01T01:56:35.944Z,17.73
2022-12-01T01:59:03.413Z,18.58
2022-12-01T02:01:31.710Z,17.75
2022-12-01T02:03:58.900Z,19.35
2022-12-01T02:06:26.059Z,19.67
2022-12-01T02:08:53.169Z,19.10
2022-12-01T02:11:49.186Z,19.10
2022-12-01T02:14:31.617Z,19.83
2022-12-01T02:17:07.986Z,19.15
2022-12-01T02:19:35.090Z,18.83
2022-12-01T02:22:13.929Z,19.08
2022-12-01T02:24:41.087Z,19.67
2022-12-01T02:27:27.122Z,19.13
2022-12-01T02:30:08.555Z,21.13
2022-12-01T02:32:54.505Z,19.77
2022-12-01T02:35:25.633Z,19.15
2022-12-01T02:37:52.788Z,17.48
2022-12-01T02:40:23.117Z,19.92
2022-12-01T02:43:02.334Z,19.67
2022-12-01T02:45:29.654Z,20.90
2022-12-01T02:47:57.957Z,20.67
2022-12-01T02:50:26.485Z,20.25
2022-12-01T02:52:54.249Z,20.40
2022-12-01T02:55:21.495Z,21.60
2022-12-01T02:57:48.671Z,19.73
2022-12-01T03:00:16.794Z,20.55
2022-12-01T03:02:53.340Z,17.98
2022-12-01T03:05:29.743Z,18.98
2022-12-01T03:08:19.643Z,18.77
2022-12-01T03:10:53.760Z,19.33
2022-12-01T03:13:35.276Z,19.33
2022-12-01T03:16:06.809Z,17.92
2022-12-01T03:18:33.978Z,20.50
2022-12-01T03:21:06.986Z,20.73
2022-12-01T03:23:37.115Z,18.83
2022-12-01T03:26:07.099Z,20.63
2022-12-01T03:28:37.470Z,19.27
2022-12-01T03:31:07.274Z,19.58
2022-12-01T03:33:41.446Z,19.38
2022-12-01T03:36:34.956Z,20.02
2022-12-01T03:39:04.757Z,19.00
2022-12-01T03:41:39.692Z,19.55
2022-12-01T03:44:09.267Z,19.92
2022-12-01T03:46:42.433Z,19.75
2022-12-01T03:49:09.776Z,17.90
2022-12-01T03:51:43.369Z,18.65
2022-12-01T03:54:22.117Z,19.98
2022-12-01T03:57:01.014Z,20.45
2022-12-01T03:59:29.050Z,20.48
2022-12-01T04:01:56.323Z,19.42
2022-12-01T04:04:23.417Z,20.83
2022-12-01T04:06:51.175Z,18.98
2022-12-01T04:09:18.423Z,19.85
2022-12-01T04:12:04.255Z,20.88
2022-12-01T04:14:31.418Z,19.58
2022-12-01T04:16:58.498Z,19.50
2022-12-01T04:19:25.662Z,20.27
2022-12-01T04:21:52.752Z,19.75
2022-12-01T04:24:19.840Z,20.40
2022-12-01T04:26:47.006Z,22.55
2022-12-01T04:29:14.366Z,18.83
2022-12-01T04:31:41.867Z,22.60
2022-12-01T04:34:10.352Z,21.58
2022-12-01T04:36:37.518Z,21.80
2022-12-01T04:39:04.993Z,19.40
2022-12-01T04:41:32.162Z,20.50
2022-12-01T04:43:59.277Z,19.38
2022-12-01T04:46:26.452Z,21.58
2022-12-01T04:48:53.657Z,20.40
2022-12-01T04:51:21.370Z,19.98
2022-12-01T04:53:49.007Z,19.38
2022-12-01T04:56:16.469Z,18.25
2022-12-01T04:58:43.937Z,19.95
2022-12-01T05:01:12.888Z,18.92
2022-12-01T05:03:41.174Z,20.35
2022-12-01T05:06:10.082Z,20.02
2022-12-01T05:08:37.696Z,20.63
2022-12-01T05:11:07.631Z,20.08
2022-12-01T05:13:37.139Z,19.70
2022-12-01T05:16:05.124Z,20.55
2022-12-01T05:18:32.457Z,20.83
2022-12-01T05:20:59.698Z,20.10
2022-12-01T05:23:27.747Z,19.80
2022-12-01T05:25:54.847Z,20.05
2022-12-01T05:28:22.677Z,20.30
2022-12-01T05:30:49.967Z,20.33
2022-12-01T05:33:17.360Z,19.92
2022-12-01T05:35:44.540Z,19.35
2022-12-01T05:38:12.020Z,20.95
2022-12-01T05:40:39.270Z,20.25
2022-12-01T05:43:06.812Z,20.58
2022-12-01T05:45:34.637Z,20.00
2022-12-01T05:48:02.524Z,21.08
2022-12-01T05:50:30.518Z,20.80
2022-12-01T05:52:57.886Z,20.85
2022-12-01T05:55:25.114Z,18.73
2022-12-01T05:57:52.560Z,21.70
2022-12-01T06:00:20.213Z,21.30
2022-12-01T06:02:47.354Z,20.30
2022-12-01T06:05:14.454Z,19.25
2022-12-01T06:07:41.679Z,19.73
2022-12-01T06:10:09.971Z,19.83
2022-12-01T06:12:38.047Z,19.55
2022-12-01T06:15:06.160Z,20.13
2022-12-01T06:17:39.782Z,18.15
2022-12-01T06:20:08.006Z,20.10
2022-12-01T06:22:35.127Z,19.58
2022-12-01T06:25:02.337Z,20.05
2022-12-01T06:27:29.509Z,20.45
2022-12-01T06:29:56.877Z,19.45
2022-12-01T06:32:24.191Z,19.05
2022-12-01T06:34:51.671Z,18.55
2022-12-01T06:37:18.850Z,19.25
2022-12-01T06:39:46.046Z,20.80
2022-12-01T06:42:13.303Z,18.38
2022-12-01T06:44:40.441Z,16.88
2022-12-01T06:47:08.186Z,22.35
2022-12-01T06:49:35.838Z,20.27
2022-12-01T06:52:03.099Z,19.77
2022-12-01T06:54:30.297Z,23.25
2022-12-01T06:56:58.511Z,20.10
2022-12-01T06:59:26.117Z,18.50
2022-12-01T07:01:53.772Z,17.65
2022-12-01T07:04:21.035Z,17.10
2022-12-01T07:06:48.202Z,17.27
2022-12-01T07:09:15.415Z,16.40
2022-12-01T07:11:42.668Z,15.85
2022-12-01T07:14:16.403Z,16.10
2022-12-01T07:16:43.541Z,16.58
2022-12-01T07:19:10.753Z,17.08
2022-12-01T07:21:37.979Z,15.13
2022-12-01T07:24:05.240Z,17.80
2022-12-01T07:26:32.418Z,16.55
2022-12-01T07:28:59.570Z,16.95
2022-12-01T07:31:26.774Z,16.88
2022-12-01T07:33:56.791Z,17.77
2022-12-01T07:36:23.924Z,16.77
2022-12-01T07:38:51.106Z,18.65
2022-12-01T07:41:19.475Z,19.48
2022-12-01T07:43:49.682Z,18.85
2022-12-01T07:46:22.822Z,18.33
2022-12-01T07:48:51.569Z,17.52
2022-12-01T07:51:18.894Z,17.15
2022-12-01T07:53:46.792Z,18.38
2022-12-01T07:56:16.793Z,19.25
2022-12-01T07:58:43.937Z,19.25
2022-12-01T08:01:12.532Z,18.45
2022-12-01T08:03:40.182Z,21.42
2022-12-01T08:06:07.897Z,21.33
2022-12-01T08:08:36.026Z,19.10
2022-12-01T08:11:05.030Z,21.85
2022-12-01T08:13:32.201Z,20.67
2022-12-01T08:15:59.399Z,20.92
2022-12-01T08:18:26.542Z,21.35
2022-12-01T08:20:58.021Z,20.70
2022-12-01T08:23:25.200Z,21.25
2022-12-01T08:25:53.940Z,19.85
2022-12-01T08:28:21.978Z,20.52
2022-12-01T08:30:49.320Z,22.52
2022-12-01T08:33:16.442Z,20.17
2022-12-01T08:35:43.591Z,21.27
2022-12-01T08:38:10.870Z,22.73
2022-12-01T08:40:38.052Z,22.60
2022-12-01T08:43:05.622Z,22.20
2022-12-01T08:45:32.849Z,20.77
2022-12-01T08:47:59.993Z,21.77
2022-12-01T08:50:27.805Z,21.77
2022-12-01T08:52:55.102Z,21.33
2022-12-01T08:55:22.750Z,21.98
2022-12-01T08:57:50.054Z,20.58
2022-12-01T09:00:17.469Z,22.17
2022-12-01T09:02:44.720Z,22.60
2022-12-01T09:05:12.121Z,21.65
2022-12-01T09:07:39.426Z,21.83
2022-12-01T09:10:07.030Z,22.13
2022-12-01T09:12:34.218Z,22.58
2022-12-01T09:15:01.381Z,22.27
2022-12-01T09:17:29.114Z,21.58
2022-12-01T09:19:56.282Z,22.85
2022-12-01T09:22:23.654Z,23.90
2022-12-01T09:24:50.753Z,21.35
2022-12-01T09:27:17.852Z,23.30
2022-12-01T09:29:45.026Z,24.30
2022-12-01T09:32:12.185Z,22.10
2022-12-01T09:34:39.415Z,23.33
2022-12-01T09:37:07.609Z,22.58
2022-12-01T09:39:34.744Z,22.55
2022-12-01T09:42:33.813Z,21.58
2022-12-01T09:45:04.934Z,24.02
2022-12-01T09:47:34.610Z,22.98
2022-12-01T09:50:04.078Z,22.08
2022-12-01T09:52:51.450Z,22.73
2022-12-01T09:55:20.348Z,24.30
2022-12-01T09:57:48.332Z,25.33
2022-12-01T10:00:18.082Z,25.63
2022-12-01T10:02:45.367Z,24.30
2022-12-01T10:05:18.872Z,22.73
2022-12-01T10:07:48.194Z,23.25
2022-12-01T10:10:17.710Z,24.70
2022-12-01T10:12:47.044Z,22.70
2022-12-01T10:15:14.179Z,23.02
2022-12-01T10:17:52.992Z,21.45
2022-12-01T10:20:28.476Z,23.55
2022-12-01T10:23:01.959Z,23.10
2022-12-01T10:25:32.228Z,22.42
2022-12-01T10:27:59.310Z,21.77
2022-12-01T10:30:26.708Z,23.15
2022-12-01T10:32:58.282Z,23.77
2022-12-01T10:35:29.013Z,24.13
2022-12-01T10:37:58.933Z,22.00
2022-12-01T10:40:27.457Z,21.42
2022-12-01T10:42:55.079Z,21.85
2022-12-01T10:45:23.870Z,22.35
2022-12-01T10:48:09.599Z,21.42
2022-12-01T10:50:37.045Z,21.35
2022-12-01T10:53:04.685Z,22.08
2022-12-01T10:55:41.948Z,23.38
2022-12-01T10:58:16.202Z,22.98
2022-12-01T11:01:02.563Z,22.15
2022-12-01T11:03:32.072Z,22.30
2022-12-01T11:06:01.098Z,22.23
2022-12-01T11:08:42.233Z,22.42
2022-12-01T11:11:24.762Z,19.80
2022-12-01T11:16:34.309Z,24.30
2022-12-01T11:19:29.109Z,22.35
2022-12-01T11:24:55.501Z,23.50
2022-12-01T11:27:25.334Z,22.73
2022-12-01T11:29:56.203Z,23.80
2022-12-01T11:32:29.227Z,23.67
2022-12-01T11:35:07.663Z,22.85
2022-12-01T11:37:38.577Z,23.08
2022-12-01T11:40:13.321Z,23.52
2022-12-01T11:42:41.387Z,23.00
2022-12-01T11:45:21.326Z,22.80
2022-12-01T11:48:06.975Z,22.00
2022-12-01T11:50:38.739Z,22.77
2022-12-01T11:53:25.964Z,22.33
2022-12-01T11:55:53.115Z,24.13
2022-12-01T11:58:20.250Z,21.10
2022-12-01T12:00:49.838Z,20.55
2022-12-01T12:03:20.796Z,20.42
2022-12-01T12:06:32.259Z,19.27
2022-12-01T12:09:16.901Z,22.25
2022-12-01T12:12:08.706Z,21.05
2022-12-01T12:14:42.166Z,19.73
2022-12-01T12:17:33.247Z,20.95
2022-12-01T12:20:08.668Z,21.95
2022-12-01T12:23:00.239Z,20.60
2022-12-01T12:25:45.833Z,20.10
2022-12-01T12:28:25.155Z,22.88
2022-12-01T12:30:58.700Z,20.70
2022-12-01T12:33:32.031Z,19.15
2022-12-01T12:36:04.987Z,19.27
2022-12-01T12:38:49.061Z,20.35
2022-12-01T12:41:22.501Z,20.52
2022-12-01T12:43:49.583Z,21.38
2022-12-01T12:46:33.948Z,19.88
2022-12-01T12:49:22.453Z,18.52
2022-12-01T12:51:53.547Z,19.45
2022-12-01T12:54:39.613Z,19.90
2022-12-01T12:57:20.118Z,19.10
2022-12-01T13:00:14.614Z,18.50
2022-12-01T13:02:51.133Z,17.95
2022-12-01T13:05:25.621Z,17.42
2022-12-01T13:08:05.192Z,19.58
2022-12-01T13:10:47.527Z,18.17
2022-12-01T13:13:23.862Z,21.30
2022-12-01T13:15:52.255Z,18.65
2022-12-01T13:18:35.994Z,19.50
2022-12-01T13:21:04.494Z,18.33
2022-12-01T13:23:32.008Z,17.27
2022-12-01T13:26:00.796Z,19.25
2022-12-01T13:28:30.643Z,15.25
2022-12-01T13:30:59.715Z,19.55
2022-12-01T13:33:27.382Z,18.58
2022-12-01T13:36:22.607Z,19.83
2022-12-01T13:38:42.507Z,18.35
2022-12-01T13:41:18.882Z,18.67
2022-12-01T13:43:58.162Z,18.25
2022-12-01T13:46:37.985Z,18.25
2022-12-01T13:49:05.473Z,18.08
2022-12-01T13:51:51.660Z,17.13
2022-12-01T13:54:29.356Z,19.52
2022-12-01T13:57:04.898Z,18.17
2022-12-01T13:59:58.804Z,18.10
2022-12-01T14:02:27.421Z,18.05
2022-12-01T14:04:54.830Z,18.02
2022-12-01T14:07:24.315Z,17.85
2022-12-01T14:09:54.341Z,18.65
2022-12-01T14:12:22.888Z,17.58
2022-12-01T14:15:13.435Z,17.67
2022-12-01T14:17:41.598Z,17.15
2022-12-01T14:20:27.590Z,17.00
2022-12-01T14:23:21.347Z,17.42
2022-12-01T14:26:20.703Z,16.73
2022-12-01T14:28:56.894Z,17.35
2022-12-01T14:31:24.958Z,17.25
2022-12-01T14:33:53.606Z,17.17
2022-12-01T14:36:23.790Z,17.80
2022-12-01T14:38:50.884Z,16.35
2022-12-01T14:41:25.544Z,18.92
2022-12-01T14:44:03.942Z,17.15
2022-12-01T14:46:50.197Z,18.15
2022-12-01T14:49:20.414Z,17.25
2022-12-01T14:51:49.277Z,16.73
2022-12-01T14:54:18.783Z,16.17
2022-12-01T14:56:47.690Z,15.65
2022-12-01T14:59:23.146Z,17.55
2022-12-01T15:01:52.012Z,17.75
2022-12-01T15:04:19.768Z,16.45
2022-12-01T15:06:47.111Z,16.83
2022-12-01T15:09:33.567Z,16.08
2022-12-01T15:12:02.833Z,15.50
2022-12-01T15:14:29.945Z,17.95
2022-12-01T15:16:57.458Z,15.25
2022-12-01T15:19:32.142Z,17.65
2022-12-01T15:22:00.500Z,17.55
2022-12-01T15:24:30.902Z,16.38
2022-12-01T15:27:03.446Z,18.45
2022-12-01T15:29:32.466Z,17.83
2022-12-01T15:32:03.807Z,17.60
2022-12-01T15:34:33.591Z,18.17
2022-12-01T15:37:01.350Z,17.10
2022-12-01T15:39:32.418Z,18.98
2022-12-01T15:41:59.887Z,17.35
2022-12-01T15:47:38.570Z,16.52
2022-12-01T15:50:06.320Z,17.05
2022-12-01T15:52:42.330Z,17.55
2022-12-01T15:55:15.631Z,16.92
2022-12-01T15:57:46.845Z,16.70
2022-12-01T16:00:19.123Z,17.40
2022-12-01T16:02:52.107Z,16.60
2022-12-01T16:05:20.741Z,16.45
2022-12-01T16:08:12.745Z,17.38
2022-12-01T16:10:35.984Z,17.15
2022-12-01T16:13:32.814Z,16.92
2022-12-01T16:15:59.975Z,17.38
2022-12-01T16:18:31.327Z,18.83
2022-12-01T16:21:05.638Z,19.23
2022-12-01T16:23:33.509Z,17.52
2022-12-01T16:26:02.205Z,16.52
2022-12-01T16:28:36.472Z,14.07
2022-12-01T16:31:12.573Z,15.02
2022-12-01T16:33:42.248Z,15.77
2022-12-01T16:36:09.657Z,15.02
2022-12-01T16:38:36.936Z,15.75
2022-12-01T16:41:15.334Z,15.35
2022-12-01T16:43:59.108Z,15.90
2022-12-01T16:46:30.235Z,14.30
2022-12-01T16:48:57.675Z,14.45
2022-12-01T16:51:35.658Z,15.45
2022-12-01T16:54:10.395Z,13.88
2022-12-01T16:56:37.570Z,14.57
2022-12-01T16:59:05.006Z,15.75
2022-12-01T17:01:33.076Z,15.13
2022-12-01T17:04:04.642Z,15.48
2022-12-01T17:06:33.792Z,16.90
2022-12-01T17:09:01.035Z,20.95
2022-12-01T17:11:28.142Z,26.55
2022-12-01T17:13:55.299Z,16.80
2022-12-01T17:16:22.650Z,15.30
2022-12-01T17:18:49.890Z,15.88
2022-12-01T17:21:17.236Z,23.13
2022-12-01T17:23:44.673Z,17.13
2022-12-01T17:26:13.843Z,53.22
2022-12-01T17:28:41.092Z,13.05
2022-12-01T17:31:09.503Z,19.05
2022-12-01T17:33:37.149Z,15.00
2022-12-01T17:36:05.429Z,17.17
2022-12-01T17:38:34.903Z,14.70
2022-12-01T17:41:03.003Z,14.98
2022-12-01T17:43:30.484Z,15.10
2022-12-01T17:45:58.403Z,14.82
2022-12-01T17:48:25.697Z,15.52
2022-12-01T17:50:52.894Z,19.92
2022-12-01T17:53:20.051Z,22.30
2022-12-01T17:55:47.461Z,19.73
2022-12-01T17:58:14.698Z,17.10
2022-12-01T18:00:41.981Z,18.58
2022-12-01T18:03:09.187Z,15.75
2022-12-01T18:05:36.487Z,20.63
2022-12-01T18:08:04.711Z,21.20
2022-12-01T18:10:31.822Z,24.52
2022-12-01T18:12:59.016Z,28.17
2022-12-01T18:15:31.777Z,27.17
2022-12-01T18:18:03.089Z,25.98
2022-12-01T18:20:30.382Z,25.23
2022-12-01T18:22:57.677Z,27.42
2022-12-01T18:25:24.895Z,26.98
2022-12-01T18:27:58.154Z,32.30
2022-12-01T18:30:25.449Z,27.40
2022-12-01T18:32:52.638Z,26.58
2022-12-01T18:35:19.710Z,29.60
2022-12-01T18:37:46.961Z,25.52
2022-12-01T18:40:14.190Z,23.83
2022-12-01T18:42:41.323Z,23.45
2022-12-01T18:45:08.713Z,21.98
2022-12-01T18:47:35.997Z,24.58
2022-12-01T18:50:03.611Z,32.85
2022-12-01T18:52:30.785Z,32.08
2022-12-01T18:54:58.238Z,30.92
2022-12-01T18:57:25.344Z,29.35
2022-12-01T18:59:54.728Z,27.90
2022-12-01T19:02:21.951Z,24.73
2022-12-01T19:04:50.450Z,25.85
2022-12-01T19:07:17.970Z,23.33
2022-12-01T19:09:46.101Z,20.85
2022-12-01T19:12:13.374Z,20.27
2022-12-01T19:14:40.454Z,21.27
2022-12-01T19:17:07.633Z,24.40
2022-12-01T19:19:37.621Z,22.95
2022-12-01T19:22:10.771Z,26.63
2022-12-01T19:24:37.917Z,26.20
2022-12-01T19:27:05.183Z,24.48
2022-12-01T19:29:32.423Z,23.50
2022-12-01T19:32:01.566Z,22.65
2022-12-01T19:34:28.838Z,21.13
2022-12-01T19:36:56.746Z,22.88
2022-12-01T19:39:24.106Z,20.95
2022-12-01T19:41:52.649Z,22.00
2022-12-01T19:44:19.842Z,19.15
2022-12-01T19:46:47.009Z,18.95
2022-12-01T19:49:14.184Z,20.67
2022-12-01T19:51:41.714Z,26.60
2022-12-01T19:54:11.697Z,25.10
2022-12-01T19:56:38.925Z,21.08
2022-12-01T19:59:07.864Z,25.02
2022-12-01T20:01:34.953Z,26.42
2022-12-01T20:04:02.258Z,23.83
2022-12-01T20:06:30.526Z,25.48
2022-12-01T20:08:58.326Z,24.77
2022-12-01T20:11:25.917Z,24.40
2022-12-01T20:13:53.206Z,25.10
2022-12-01T20:16:21.870Z,21.98
2022-12-01T20:18:49.460Z,22.23
2022-12-01T20:21:19.319Z,25.83
2022-12-01T20:23:50.701Z,25.15
2022-12-01T20:26:18.761Z,25.02
2022-12-01T20:28:46.982Z,23.15
2022-12-01T20:31:24.696Z,22.02
2022-12-01T20:33:52.665Z,19.98
2022-12-01T20:36:20.289Z,23.95
2022-12-01T20:38:47.464Z,21.80
2022-12-01T20:41:14.955Z,27.08
2022-12-01T20:43:42.205Z,27.02
2022-12-01T20:46:09.551Z,25.85
2022-12-01T20:48:36.818Z,22.50
2022-12-01T20:51:05.239Z,21.70
2022-12-01T20:53:32.422Z,21.23
2022-12-01T20:56:02.838Z,24.77
2022-12-01T20:58:33.277Z,22.60
2022-12-01T21:01:11.981Z,21.92
2022-12-01T21:03:40.028Z,23.40
2022-12-01T21:06:07.696Z,24.02
2022-12-01T21:08:34.874Z,26.40
2022-12-01T21:11:13.082Z,24.80
2022-12-01T21:13:42.479Z,29.05
2022-12-01T21:16:18.951Z,27.10
2022-12-01T21:18:48.947Z,28.38
2022-12-01T21:21:27.486Z,23.27
2022-12-01T21:24:09.809Z,24.55
2022-12-01T21:26:38.170Z,24.83
2022-12-01T21:29:18.999Z,21.25
2022-12-01T21:31:47.429Z,20.85
2022-12-01T21:34:35.626Z,23.65
2022-12-01T21:37:03.114Z,24.05
2022-12-01T21:39:31.032Z,22.02
2022-12-01T21:42:07.533Z,20.90
2022-12-01T21:44:37.399Z,20.17
2022-12-01T21:47:14.012Z,23.27
2022-12-01T21:49:41.281Z,23.55
2022-12-01T21:52:17.539Z,22.25
2022-12-01T21:54:44.763Z,24.13
2022-12-01T21:57:26.993Z,22.95
2022-12-01T21:59:57.565Z,24.35
2022-12-01T22:02:37.344Z,24.63
2022-12-01T22:05:17.115Z,20.90
2022-12-01T22:07:44.423Z,18.65
2022-12-01T22:10:30.763Z,19.90
2022-12-01T22:12:57.935Z,17.48
2022-12-01T22:15:41.080Z,18.17
2022-12-01T22:20:35.441Z,16.15
2022-12-01T22:23:05.817Z,18.45
2022-12-01T22:25:33.096Z,18.63
2022-12-01T22:28:01.424Z,16.70
2022-12-01T22:30:28.554Z,18.88
2022-12-01T22:33:00.423Z,17.92
2022-12-01T22:35:39.468Z,18.55
2022-12-01T22:38:06.538Z,20.52
2022-12-01T22:40:36.183Z,22.00
2022-12-01T22:43:17.884Z,20.55
2022-12-01T22:45:46.133Z,19.58
2022-12-01T22:48:42.781Z,19.27
2022-12-01T22:51:17.024Z,17.95
2022-12-01T22:53:45.652Z,21.10
2022-12-01T22:56:31.241Z,18.58
2022-12-01T22:58:58.678Z,19.33
2022-12-01T23:01:26.177Z,20.02
2022-12-01T23:04:20.094Z,21.02
2022-12-01T23:06:52.178Z,21.85
2022-12-01T23:09:19.985Z,20.63
2022-12-01T23:11:52.797Z,19.67
2022-12-01T23:14:24.091Z,24.35
2022-12-01T23:17:01.140Z,21.25
2022-12-01T23:19:28.413Z,22.48
2022-12-01T23:21:55.502Z,22.33
2022-12-01T23:24:22.633Z,21.67
2022-12-01T23:26:49.805Z,23.58
2022-12-01T23:29:16.951Z,23.05
2022-12-01T23:31:44.420Z,24.05
2022-12-01T23:34:13.859Z,24.60
2022-12-01T23:36:41.376Z,24.35
2022-12-01T23:39:12.450Z,24.70
2022-12-01T23:41:41.346Z,22.77
2022-12-01T23:44:19.318Z,23.80
2022-12-01T23:46:47.120Z,23.98
2022-12-01T23:49:16.110Z,23.25
2022-12-01T23:51:48.458Z,24.23
2022-12-01T23:54:18.600Z,22.38
2022-12-01T23:56:49.170Z,24.05
2022-12-01T23:59:16.283Z,24.27
